Time;durP1;ratioP1;P1;durP2;ratioP2;P2;SDS_P1;SDS_P2;PMS_P1;PMS_P2;Temp;Humidity;BMP_temperature;BMP_pressure;BME280_temperature;BME280_humidity;BME280_pressure;Samples;Min_cycle;Max_cycle;Signal;HPM_P1;HPM_P2
2023/04/20 00:02:13;;;;;;;13.77;9.90;;;1.00;99.90;;;;;;8313914;28;20244;-68
2023/04/20 00:06:37;;;;;;;12.00;9.37;;;1.00;99.90;;;;;;8317751;28;20186;-69
2023/04/20 00:11:05;;;;;;;13.47;10.13;;;1.00;99.90;;;;;;8316179;28;20210;-69
2023/04/20 00:15:12;;;;;;;12.33;9.47;;;0.90;99.90;;;;;;8315632;28;20186;-68
2023/04/20 00:19:33;;;;;;;;;;;;;;;;;;;;;
2023/04/20 00:23:40;;;;;;;13.70;9.87;;;0.70;99.90;;;;;;8335529;28;20210;-69
2023/04/20 00:28:16;;;;;;;13.23;9.33;;;0.70;99.90;;;;;;8311252;28;20249;-68
2023/04/20 00:32:17;;;;;;;13.23;10.00;;;0.60;99.90;;;;;;8310534;28;20182;-68
2023/04/20 00:36:28;;;;;;;13.80;9.63;;;0.60;99.90;;;;;;8315862;28;20273;-69
2023/04/20 00:40:34;;;;;;;12.67;9.50;;;0.70;99.90;;;;;;8309257;28;20213;-68
2023/04/20 00:44:41;;;;;;;11.80;8.87;;;0.70;99.90;;;;;;8311390;28;20190;-68
2023/04/20 00:48:58;;;;;;;12.50;8.67;;;0.60;99.90;;;;;;8306512;28;20249;-69
2023/04/20 00:53:12;;;;;;;13.30;9.90;;;0.50;99.90;;;;;;8308862;28;20205;-68
2023/04/20 00:57:46;;;;;;;15.73;10.47;;;0.40;99.90;;;;;;8311518;28;20202;-69
2023/04/20 01:01:55;;;;;;;12.93;9.60;;;0.30;99.90;;;;;;8313718;28;20206;-69
2023/04/20 01:06:00;;;;;;;14.00;10.30;;;0.20;99.90;;;;;;8311622;28;20195;-69
2023/04/20 01:10:39;;;;;;;12.17;8.80;;;0.20;99.90;;;;;;8306403;28;20210;-69
2023/04/20 01:19:44;;;;;;;15.47;10.83;;;0.10;99.90;;;;;;8320578;28;20206;-68
2023/04/20 01:23:50;;;;;;;14.47;10.03;;;0.10;99.90;;;;;;8303391;28;20193;-68
2023/04/20 01:27:55;;;;;;;14.50;9.77;;;0.10;99.90;;;;;;8328340;28;20213;-69
2023/04/20 01:31:56;;;;;;;14.70;9.73;;;0.00;99.90;;;;;;8311581;28;20186;-67
2023/04/20 01:36:00;;;;;;;14.70;9.83;;;0.00;99.90;;;;;;8328380;28;20181;-68
2023/04/20 01:40:11;;;;;;;11.13;8.60;;;-0.10;99.90;;;;;;8312474;28;20197;-70
2023/04/20 01:44:58;;;;;;;13.73;8.33;;;-0.20;99.90;;;;;;8243577;28;20211;-70
2023/04/20 01:49:17;;;;;;;11.50;7.53;;;-0.30;99.90;;;;;;8135174;29;20241;-70
2023/04/20 01:53:25;;;;;;;13.50;9.00;;;-0.30;99.90;;;;;;8189502;28;20253;-70
2023/04/20 01:57:49;;;;;;;;;;;;;;;;;;;;;
2023/04/20 02:02:16;;;;;;;14.23;9.07;;;-0.40;99.90;;;;;;8245849;28;20219;-69
2023/04/20 02:06:30;;;;;;;14.37;10.13;;;-0.40;99.90;;;;;;8237236;28;20199;-70
2023/04/20 02:10:42;;;;;;;14.47;9.40;;;-0.40;99.90;;;;;;8229462;28;20263;-70
2023/04/20 02:14:59;;;;;;;14.07;9.33;;;-0.50;99.90;;;;;;8266933;28;20197;-70
2023/04/20 02:23:45;;;;;;;16.20;11.03;;;-0.60;99.90;;;;;;8326791;28;20187;-70
2023/04/20 02:27:56;;;;;;;14.17;9.90;;;-0.60;99.90;;;;;;8305124;28;20210;-70
2023/04/20 02:32:12;;;;;;;14.43;9.47;;;-0.70;99.90;;;;;;8307000;28;20210;-70
2023/04/20 02:36:13;;;;;;;13.40;9.27;;;-0.80;99.90;;;;;;8309918;28;20190;-71
2023/04/20 02:40:33;;;;;;;14.93;10.20;;;-0.80;99.90;;;;;;8303856;28;20197;-71
2023/04/20 02:44:54;;;;;;;;;;;;;;;;;;;;;
2023/04/20 02:49:16;;;;;;;18.00;10.23;;;-0.50;99.90;;;;;;8325730;28;20237;-71
2023/04/20 02:53:23;;;;;;;16.80;11.27;;;-0.30;99.90;;;;;;8302063;28;20182;-70
2023/04/20 02:57:33;;;;;;;17.70;11.23;;;-0.20;99.90;;;;;;8298223;28;20225;-70
2023/04/20 03:01:45;;;;;;;17.63;11.20;;;-0.10;99.90;;;;;;8310937;28;20197;-71
2023/04/20 03:05:46;;;;;;;21.90;13.00;;;0.00;99.90;;;;;;8332292;28;20214;-71
2023/04/20 03:09:52;;;;;;;19.30;12.37;;;0.10;99.90;;;;;;8333515;28;20244;-70
2023/04/20 03:14:02;;;;;;;19.33;10.30;;;0.20;99.90;;;;;;8320915;28;20195;-72
2023/04/20 03:18:23;;;;;;;16.63;11.03;;;0.20;99.90;;;;;;8314915;28;20188;-70
2023/04/20 03:22:46;;;;;;;20.60;12.80;;;0.00;99.90;;;;;;8306446;28;20248;-70
2023/04/20 03:26:55;;;;;;;20.77;12.40;;;-0.10;99.90;;;;;;8329401;28;20193;-70
2023/04/20 03:31:01;;;;;;;18.63;10.73;;;-0.20;99.90;;;;;;8309737;28;20317;-71
2023/04/20 03:35:03;;;;;;;17.80;10.97;;;-0.40;99.90;;;;;;8312004;28;20177;-71
2023/04/20 03:39:23;;;;;;;;;;;;;;;;;;;;;
2023/04/20 03:43:49;;;;;;;24.07;12.30;;;-0.30;99.90;;;;;;8326164;28;20218;-68
2023/04/20 03:47:57;;;;;;;31.47;14.53;;;-0.20;99.90;;;;;;8323347;28;20221;-69
2023/04/20 03:51:58;;;;;;;24.97;14.80;;;0.00;99.90;;;;;;8312967;28;20216;-67
2023/04/20 03:56:25;;;;;;;28.20;15.00;;;0.10;99.90;;;;;;8313815;28;20357;-68
2023/04/20 04:00:50;;;;;;;25.97;13.57;;;0.20;99.90;;;;;;8310765;28;20192;-68
2023/04/20 04:04:57;;;;;;;20.23;12.40;;;0.20;99.90;;;;;;8311801;28;20233;-68
2023/04/20 04:09:14;;;;;;;18.37;13.37;;;0.20;99.90;;;;;;8308127;28;20234;-69
2023/04/20 04:13:28;;;;;;;20.60;13.37;;;0.30;99.90;;;;;;8313381;28;20183;-68
2023/04/20 04:17:45;;;;;;;18.90;12.20;;;0.40;99.90;;;;;;8312840;28;20194;-69
2023/04/20 04:22:07;;;;;;;19.47;12.27;;;0.50;99.90;;;;;;8311706;28;20182;-68
2023/04/20 04:26:38;;;;;;;18.30;11.90;;;0.60;99.90;;;;;;8308994;28;20194;-67
2023/04/20 04:30:48;;;;;;;31.23;19.93;;;0.80;99.90;;;;;;8315028;28;20215;-67
2023/04/20 04:34:59;;;;;;;50.13;28.70;;;0.90;99.90;;;;;;8329267;28;20188;-68
2023/04/20 04:39:09;;;;;;;43.07;27.07;;;1.00;99.90;;;;;;8314095;28;20320;-66
2023/04/20 04:43:13;;;;;;;39.23;25.73;;;1.10;99.90;;;;;;8306392;28;20194;-68
2023/04/20 04:47:23;;;;;;;42.57;25.30;;;1.10;99.90;;;;;;8314568;28;20189;-68
2023/04/20 04:51:24;;;;;;;47.50;27.33;;;1.20;99.90;;;;;;8304590;28;20197;-67
2023/04/20 04:55:25;;;;;;;42.53;24.33;;;1.30;99.90;;;;;;8313840;28;20186;-70
2023/04/20 04:59:26;;;;;;;31.57;20.77;;;1.40;99.90;;;;;;8306911;28;20206;-68
2023/04/20 05:03:28;;;;;;;25.73;17.63;;;1.40;99.90;;;;;;8306638;28;20204;-69
2023/04/20 05:07:54;;;;;;;25.23;16.77;;;1.40;99.90;;;;;;8313987;28;20192;-69
2023/04/20 05:12:04;;;;;;;25.17;16.63;;;1.40;99.90;;;;;;8288884;28;20190;-68
2023/04/20 05:16:50;;;;;;;19.90;13.67;;;1.50;99.90;;;;;;8309829;28;20241;-68
2023/04/20 05:21:22;;;;;;;18.33;11.77;;;1.40;99.90;;;;;;8166031;28;20228;-68
2023/04/20 05:25:33;;;;;;;19.50;13.20;;;1.50;99.90;;;;;;8156425;28;20197;-66
2023/04/20 05:29:48;;;;;;;20.23;13.60;;;1.50;99.90;;;;;;8155145;28;20225;-71
2023/04/20 05:34:03;;;;;;;18.70;12.47;;;1.50;99.90;;;;;;8157028;28;20344;-72
2023/04/20 05:38:28;;;;;;;21.63;13.93;;;1.60;99.90;;;;;;8195075;28;20419;-67
2023/04/20 05:42:32;;;;;;;23.13;14.80;;;1.60;99.90;;;;;;8196420;28;20197;-68
2023/04/20 05:46:55;;;;;;;;;;;;;;;;;;;;;
2023/04/20 05:51:02;;;;;;;19.83;13.23;;;1.50;99.90;;;;;;8261002;28;20295;-67
2023/04/20 05:55:12;;;;;;;16.87;11.93;;;1.50;99.90;;;;;;8260112;28;20199;-68
2023/04/20 05:59:36;;;;;;;17.93;12.37;;;1.50;99.90;;;;;;8242624;28;20210;-70
2023/04/20 06:03:43;;;;;;;18.97;12.87;;;1.50;99.90;;;;;;8257204;28;20233;-71
2023/04/20 06:12:12;;;;;;;16.00;11.03;;;1.90;99.90;;;;;;8279946;28;20198;-70
2023/04/20 06:16:14;;;;;;;15.73;11.77;;;2.20;99.90;;;;;;8299467;28;20208;-70
2023/04/20 06:20:27;;;;;;;15.40;11.67;;;2.30;99.90;;;;;;8300932;28;20182;-70
2023/04/20 06:25:10;;;;;;;14.90;11.03;;;2.40;99.90;;;;;;8325808;28;20255;-73
2023/04/20 06:29:21;;;;;;;12.80;9.80;;;2.50;99.90;;;;;;8296694;28;20230;-73
2023/04/20 06:33:22;;;;;;;14.20;10.63;;;2.70;99.90;;;;;;8298841;28;20263;-71
2023/04/20 06:42:06;;;;;;;13.37;10.90;;;3.00;99.90;;;;;;8303910;28;20197;-71
2023/04/20 06:46:18;;;;;;;12.27;9.90;;;3.20;99.90;;;;;;8297751;28;20182;-71
2023/04/20 06:50:23;;;;;;;17.83;13.70;;;3.40;99.90;;;;;;8306262;28;20224;-71
2023/04/20 06:54:27;;;;;;;18.70;16.20;;;3.50;99.90;;;;;;8301609;28;20205;-71
2023/04/20 06:58:38;;;;;;;16.53;14.17;;;3.40;99.90;;;;;;8305546;28;20275;-72
2023/04/20 07:02:43;;;;;;;19.60;15.60;;;3.60;99.90;;;;;;8307972;28;20198;-70
2023/04/20 07:06:45;;;;;;;22.77;16.97;;;4.00;99.90;;;;;;8320636;28;20201;-72
2023/04/20 07:11:23;;;;;;;;;;;;;;;;;;;;;
2023/04/20 07:15:28;;;;;;;16.47;12.47;;;4.60;99.90;;;;;;8320082;28;20222;-71
2023/04/20 07:19:37;;;;;;;15.73;12.20;;;4.90;99.90;;;;;;8322495;28;20206;-70
2023/04/20 07:23:56;;;;;;;16.47;13.23;;;5.20;99.90;;;;;;8289619;28;20225;-72
2023/04/20 07:28:03;;;;;;;22.17;17.53;;;5.60;99.90;;;;;;8309772;28;20217;-71
2023/04/20 07:32:11;;;;;;;23.47;18.70;;;5.80;99.90;;;;;;8300476;28;20186;-70
2023/04/20 07:36:20;;;;;;;24.87;18.47;;;6.00;99.90;;;;;;8322838;28;20187;-72
2023/04/20 07:40:24;;;;;;;21.70;17.73;;;6.10;99.90;;;;;;8302049;28;20200;-71
2023/04/20 07:44:46;;;;;;;27.33;19.60;;;6.40;99.90;;;;;;8304220;28;20204;-73
2023/04/20 07:48:58;;;;;;;;;;;;;;;;;;;;;
2023/04/20 07:53:00;;;;;;;22.33;18.40;;;6.90;99.90;;;;;;8335903;28;20217;-71
2023/04/20 07:57:15;;;;;;;41.23;29.33;;;7.10;1.00;;;;;;8318361;28;20212;-73
2023/04/20 08:01:45;;;;;;;40.57;29.37;;;7.60;8.00;;;;;;8322217;28;20349;-73
2023/04/20 08:06:16;;;;;;;39.43;27.33;;;8.30;99.90;;;;;;8315036;28;20213;-71
2023/04/20 08:11:11;;;;;;;31.50;24.57;;;8.70;99.90;;;;;;8328496;28;20275;-72
2023/04/20 08:14:45;;;;;;;24.93;19.80;;;8.90;99.90;;;;;;8326732;28;20196;-72
2023/04/20 08:19:17;;;;;;;26.47;20.33;;;8.80;99.90;;;;;;8323139;28;20202;-73
2023/04/20 08:23:42;;;;;;;20.73;16.67;;;8.80;99.90;;;;;;8322774;28;20199;-73
2023/04/20 08:28:31;;;;;;;23.87;18.83;;;8.80;99.90;;;;;;8315732;28;20305;-72
2023/04/20 08:33:04;;;;;;;23.73;18.67;;;8.80;99.90;;;;;;8337351;28;20249;-71
2023/04/20 08:42:05;;;;;;;22.50;18.73;;;8.70;99.90;;;;;;8328910;28;20229;-73
2023/04/20 08:46:40;;;;;;;24.43;19.33;;;8.60;99.90;;;;;;8322718;28;20188;-73
2023/04/20 08:50:53;;;;;;;26.33;20.23;;;8.60;99.90;;;;;;8329823;28;20246;-73
2023/04/20 08:55:28;;;;;;;24.03;17.20;;;9.10;99.90;;;;;;8331603;28;20184;-73
2023/04/20 09:00:10;;;;;;;27.77;18.97;;;9.70;99.90;;;;;;8324180;28;20200;-74
2023/04/20 09:05:07;;;;;;;25.17;20.00;;;10.30;99.90;;;;;;8277764;28;20201;-74
2023/04/20 09:09:10;;;;;;;28.97;22.33;;;10.60;98.50;;;;;;8294285;28;20292;-71
2023/04/20 09:13:29;;;;;;;24.43;18.73;;;10.60;72.40;;;;;;8314708;28;20190;-70
2023/04/20 09:18:03;;;;;;;30.67;23.20;;;10.60;80.30;;;;;;8221525;28;20275;-71
2023/04/20 09:22:14;;;;;;;32.43;24.83;;;10.60;84.80;;;;;;8188861;28;20290;-72
2023/04/20 09:30:51;;;;;;;26.33;19.83;;;11.30;68.80;;;;;;8225941;28;20225;-71
2023/04/20 09:34:52;;;;;;;22.87;19.07;;;11.60;42.10;;;;;;8208226;28;20207;-72
2023/04/20 09:39:29;;;;;;;25.07;19.83;;;11.80;43.10;;;;;;8216030;28;20211;-72
2023/04/20 09:43:58;;;;;;;50.33;32.03;;;12.00;45.20;;;;;;8160561;28;20251;-72
2023/04/20 09:48:17;;;;;;;37.77;27.17;;;12.00;64.60;;;;;;8137164;28;20217;-70
2023/04/20 09:52:43;;;;;;;27.97;21.03;;;12.00;79.70;;;;;;8111320;28;20199;-71
2023/04/20 09:57:10;;;;;;;29.37;22.30;;;11.80;86.90;;;;;;8179615;28;20226;-71
2023/04/20 10:01:37;;;;;;;;;;;;;;;;;;;;;
2023/04/20 10:05:59;;;;;;;32.53;22.30;;;12.30;76.10;;;;;;8203169;28;20232;-74
2023/04/20 10:10:21;;;;;;;31.10;21.90;;;12.80;56.10;;;;;;8250300;28;20253;-71
2023/04/20 10:15:26;;;;;;;36.40;23.23;;;13.00;22.50;;;;;;8242035;28;20202;-71
2023/04/20 10:19:53;;;;;;;24.70;18.53;;;13.00;28.80;;;;;;8223151;28;20208;-71
2023/04/20 10:24:01;;;;;;;25.43;20.13;;;13.50;21.10;;;;;;8309574;28;20198;-72
2023/04/20 10:28:46;;;;;;;33.17;23.00;;;13.90;1.00;;;;;;8307906;28;20287;-72
2023/04/20 10:33:04;;;;;;;26.57;21.00;;;14.10;1.00;;;;;;8307072;28;20205;-73
2023/04/20 10:37:23;;;;;;;31.90;22.40;;;13.80;1.00;;;;;;8301665;28;20193;-72
2023/04/20 10:41:51;;;;;;;29.63;21.80;;;13.90;1.00;;;;;;8309528;28;20186;-72
2023/04/20 10:45:58;;;;;;;30.10;22.00;;;13.80;1.00;;;;;;8304931;28;20308;-71
2023/04/20 10:50:57;;;;;;;29.37;20.80;;;13.80;1.00;;;;;;8316971;28;20206;-71
2023/04/20 10:59:57;;;;;;;;;;;;;;;;;;;;;
2023/04/20 11:08:38;;;;;;;26.80;21.20;;;14.10;1.00;;;;;;8325324;28;20221;-72
2023/04/20 11:12:43;;;;;;;34.10;24.47;;;14.10;1.00;;;;;;8340063;28;20257;-72
2023/04/20 11:17:00;;;;;;;28.10;21.83;;;14.00;1.00;;;;;;8339174;28;20239;-71
2023/04/20 11:21:01;;;;;;;30.07;20.77;;;13.80;1.00;;;;;;8338061;28;20186;-72
2023/04/20 11:25:21;;;;;;;26.20;19.57;;;13.50;1.00;;;;;;8342276;28;20216;-70
2023/04/20 11:29:38;;;;;;;24.70;19.20;;;13.40;1.00;;;;;;8345133;28;20213;-71
2023/04/20 11:34:29;;;;;;;49.33;31.53;;;13.50;1.00;;;;;;8342490;28;20217;-72
2023/04/20 11:38:40;;;;;;;27.00;21.80;;;13.60;5.80;;;;;;8330447;28;20231;-71
2023/04/20 11:42:52;;;;;;;28.73;20.33;;;13.90;1.00;;;;;;8349211;28;20185;-71
2023/04/20 11:46:56;;;;;;;28.43;19.63;;;14.00;1.00;;;;;;8352063;28;20197;-72
2023/04/20 11:51:24;;;;;;;24.20;17.90;;;14.20;1.00;;;;;;8349895;28;20246;-72
2023/04/20 11:55:37;;;;;;;21.17;17.27;;;14.50;1.00;;;;;;8343378;28;20276;-72
2023/04/20 11:59:52;;;;;;;;;;;;;;;;;;;;;
2023/04/20 12:04:22;;;;;;;22.27;17.17;;;15.20;1.00;;;;;;8327397;28;20221;-70
2023/04/20 12:08:38;;;;;;;21.00;15.57;;;15.50;1.00;;;;;;8308937;28;20287;-71
2023/04/20 12:13:03;;;;;;;20.23;15.33;;;15.50;1.00;;;;;;8304552;28;20286;-70
2023/04/20 12:17:10;;;;;;;21.17;16.80;;;15.60;1.00;;;;;;8306739;28;20177;-71
2023/04/20 12:21:12;;;;;;;19.37;14.63;;;15.80;1.00;;;;;;8304881;28;20289;-70
2023/04/20 12:25:35;;;;;;;21.93;16.07;;;16.00;1.00;;;;;;8320365;28;20193;-70
2023/04/20 12:30:03;;;;;;;18.97;15.37;;;16.10;1.00;;;;;;8320738;28;20216;-72
2023/04/20 12:39:10;;;;;;;20.10;15.13;;;16.20;1.00;;;;;;8293912;28;20202;-72
2023/04/20 12:43:42;;;;;;;19.13;15.17;;;15.70;1.00;;;;;;8300872;28;20244;-74
2023/04/20 12:48:07;;;;;;;16.87;13.43;;;15.20;1.00;;;;;;8306162;28;20182;-73
2023/04/20 13:00:58;;;;;;;20.77;15.80;;;15.50;1.00;;;;;;8291119;28;20205;-72
2023/04/20 13:05:05;;;;;;;17.33;13.03;;;15.90;1.00;;;;;;8326822;28;20204;-72
2023/04/20 13:14:12;;;;;;;;;;;;;;;;;;;;;
2023/04/20 13:23:15;;;;;;;17.90;14.00;;;15.20;1.00;;;;;;8320242;28;20306;-72
2023/04/20 13:27:16;;;;;;;16.33;14.00;;;15.20;1.00;;;;;;8309522;28;20256;-73
2023/04/20 13:31:50;;;;;;;16.33;13.33;;;15.20;1.00;;;;;;8309742;28;20218;-73
2023/04/20 13:36:14;;;;;;;18.53;13.17;;;15.30;1.00;;;;;;8317547;28;20191;-71
2023/04/20 13:45:39;;;;;;;21.37;14.30;;;15.70;1.00;;;;;;8309675;28;20208;-73
2023/04/20 13:49:40;;;;;;;17.17;13.97;;;15.90;1.00;;;;;;8211451;28;20449;-73
2023/04/20 13:54:29;;;;;;;21.40;15.33;;;16.00;1.00;;;;;;8225608;28;20200;-72
2023/04/20 14:19:19;;;;;;;21.00;10.67;;;16.20;1.00;;;;;;8256226;28;20231;-71
2023/04/20 14:23:39;;;;;;;13.23;9.07;;;16.30;1.00;;;;;;8273179;28;20278;-69
2023/04/20 14:27:46;;;;;;;11.73;8.93;;;16.50;1.00;;;;;;8265916;28;20188;-72
2023/04/20 14:31:47;;;;;;;14.37;9.43;;;16.90;1.00;;;;;;8262845;28;20192;-72
2023/04/20 14:35:49;;;;;;;13.03;9.53;;;17.30;1.00;;;;;;8278648;28;20207;-72
2023/04/20 14:40:21;;;;;;;17.27;11.63;;;17.60;1.00;;;;;;8264670;28;20194;-73
2023/04/20 14:44:39;;;;;;;14.77;9.97;;;17.80;1.00;;;;;;8277800;28;20196;-72
2023/04/20 14:48:46;;;;;;;15.47;10.33;;;17.90;1.00;;;;;;8272071;28;20239;-70
2023/04/20 14:52:48;;;;;;;19.13;12.23;;;17.60;1.00;;;;;;8275628;28;20187;-72
2023/04/20 14:57:08;;;;;;;17.33;11.90;;;17.10;1.00;;;;;;8255622;28;20203;-74
2023/04/20 15:01:16;;;;;;;16.60;11.30;;;16.60;1.00;;;;;;8257546;28;20204;-71
2023/04/20 15:05:17;;;;;;;22.53;14.73;;;16.10;1.00;;;;;;8255719;28;20360;-71
2023/04/20 15:09:48;;;;;;;24.80;17.00;;;15.80;1.00;;;;;;8261135;28;20304;-72
2023/04/20 15:14:08;;;;;;;16.80;11.63;;;15.70;1.00;;;;;;8260810;28;20341;-74
2023/04/20 15:18:45;;;;;;;;;;;;;;;;;;;;;
2023/04/20 15:23:10;;;;;;;16.50;11.37;;;15.90;1.00;;;;;;8325668;28;20212;-72
2023/04/20 15:27:26;;;;;;;24.60;16.03;;;16.00;1.00;;;;;;8310624;28;20201;-69
2023/04/20 15:31:47;;;;;;;15.57;11.30;;;16.10;1.00;;;;;;8329123;28;20249;-68
2023/04/20 15:35:49;;;;;;;17.33;12.20;;;16.00;1.00;;;;;;8317330;28;20187;-69
2023/04/20 15:40:08;;;;;;;22.87;16.77;;;15.90;1.00;;;;;;8316159;28;20201;-68
2023/04/20 15:44:12;;;;;;;21.60;15.30;;;15.70;1.00;;;;;;8339848;28;20186;-73
2023/04/20 15:49:19;;;;;;;25.50;17.00;;;15.60;1.00;;;;;;8314181;28;20198;-70
2023/04/20 15:59:22;;;;;;;29.30;15.60;;;15.90;1.00;;;;;;8217414;28;20290;-70
2023/04/20 16:14:29;;;;;;;20.70;14.13;;;15.70;1.00;;;;;;8066945;29;20257;-70
2023/04/20 16:29:26;;;;;;;20.50;14.33;;;15.70;1.00;;;;;;8012295;29;20228;-69
2023/04/20 16:43:49;;;;;;;18.07;13.47;;;15.50;1.00;;;;;;8109253;28;20268;-69
2023/04/20 16:48:19;;;;;;;64.40;35.30;;;15.50;1.00;;;;;;8286371;28;20190;-70
2023/04/20 17:02:21;;;;;;;24.63;17.03;;;15.20;1.00;;;;;;8276572;28;20218;-70
2023/04/20 17:07:16;;;;;;;;;;;;;;;;;;;;;
2023/04/20 17:12:16;;;;;;;;;;;;;;;;;;;;;
2023/04/20 17:16:44;;;;;;;20.47;15.30;;;14.80;1.00;;;;;;8264138;28;20222;-70
2023/04/20 17:21:32;;;;;;;45.40;27.73;;;14.70;1.00;;;;;;8281202;28;20210;-71
2023/04/20 17:25:47;;;;;;;;;;;;;;;;;;;;;
2023/04/20 17:30:19;;;;;;;24.13;16.47;;;14.30;1.00;;;;;;8319856;28;20253;-70
2023/04/20 17:34:34;;;;;;;20.23;14.00;;;14.10;1.00;;;;;;8290349;28;20190;-70
2023/04/20 17:38:53;;;;;;;15.57;12.57;;;13.90;1.00;;;;;;8314112;28;20488;-69
2023/04/20 17:42:57;;;;;;;23.23;15.27;;;13.70;1.00;;;;;;8318509;28;20217;-70
2023/04/20 17:47:37;;;;;;;;;;;;;;;;;;;;;
2023/04/20 17:51:41;;;;;;;25.73;18.13;;;13.20;1.00;;;;;;8318606;28;20237;-71
2023/04/20 17:56:13;;;;;;;50.63;43.90;;;12.90;12.00;;;;;;8314181;22;20421;-69
2023/04/20 18:00:19;;;;;;;55.83;45.33;;;12.80;29.40;;;;;;8324173;28;20225;-68
2023/04/20 18:04:29;;;;;;;37.80;30.60;;;12.50;49.70;;;;;;8309058;28;20198;-68
2023/04/20 18:08:39;;;;;;;28.67;23.60;;;12.20;74.20;;;;;;8304580;28;20288;-68
2023/04/20 18:12:57;;;;;;;22.17;18.80;;;11.90;98.60;;;;;;8305316;28;20182;-68
2023/04/20 18:17:10;;;;;;;20.53;14.40;;;11.60;99.90;;;;;;8307425;28;20185;-69
2023/04/20 18:21:18;;;;;;;15.77;12.13;;;11.20;99.90;;;;;;8302901;28;20288;-69
2023/04/20 18:25:28;;;;;;;13.43;10.93;;;10.90;99.90;;;;;;8320350;28;20198;-70
2023/04/20 18:29:37;;;;;;;12.53;9.83;;;10.70;99.90;;;;;;8314753;28;20228;-69
2023/04/20 18:33:48;;;;;;;12.43;9.27;;;10.50;99.90;;;;;;8316151;28;20189;-68
2023/04/20 18:37:58;;;;;;;13.70;9.97;;;10.40;99.90;;;;;;8325082;28;20235;-69
2023/04/20 18:42:11;;;;;;;15.37;9.33;;;10.30;99.90;;;;;;8310469;28;20303;-68
2023/04/20 18:46:28;;;;;;;12.00;9.27;;;10.30;99.90;;;;;;8297831;28;20193;-68
2023/04/20 18:50:34;;;;;;;10.87;9.10;;;10.20;99.90;;;;;;8309619;28;20254;-69
2023/04/20 18:54:58;;;;;;;10.87;8.97;;;10.00;1.00;;;;;;8311410;28;20239;-70
2023/04/20 18:59:07;;;;;;;13.73;9.83;;;9.80;1.00;;;;;;8325053;28;20231;-70
2023/04/20 19:03:08;;;;;;;14.40;10.70;;;9.60;1.00;;;;;;8325423;28;20210;-68
2023/04/20 19:07:58;;;;;;;13.10;10.63;;;9.40;1.00;;;;;;8329479;28;20191;-68
2023/04/20 19:12:14;;;;;;;14.97;9.47;;;9.20;9.20;;;;;;8314970;28;20202;-70
2023/04/20 19:16:34;;;;;;;12.50;9.90;;;9.00;99.90;;;;;;8308134;28;20205;-68
2023/04/20 19:25:11;;;;;;;12.90;9.63;;;8.70;99.90;;;;;;8308051;28;20185;-68
2023/04/20 19:29:45;;;;;;;14.83;10.50;;;8.50;99.90;;;;;;8319896;28;20228;-69
2023/04/20 19:33:55;;;;;;;13.90;10.70;;;8.30;99.90;;;;;;8297426;28;20213;-69
2023/04/20 19:43:42;;;;;;;12.27;9.33;;;8.20;1.00;;;;;;8255128;28;20226;-69
2023/04/20 19:47:54;;;;;;;14.27;9.80;;;8.00;1.00;;;;;;8312413;28;20313;-69
2023/04/20 19:52:33;;;;;;;12.43;8.77;;;7.90;1.00;;;;;;8317258;28;20217;-69
2023/04/20 19:56:36;;;;;;;12.53;9.03;;;7.70;5.90;;;;;;8210290;28;20226;-70
2023/04/20 20:01:35;;;;;;;;;;;;;;;;;;;;;
2023/04/20 20:10:46;;;;;;;11.83;8.57;;;7.40;99.90;;;;;;8237059;28;20374;-69
2023/04/20 20:14:59;;;;;;;12.33;9.23;;;7.30;99.90;;;;;;8155742;28;20197;-69
2023/04/20 20:29:14;;;;;;;;;;;;;;;;;;;;;
2023/04/20 20:38:39;;;;;;;12.37;8.77;;;6.80;99.90;;;;;;8263411;28;20198;-73
2023/04/20 20:42:43;;;;;;;11.13;8.53;;;6.70;99.90;;;;;;8287730;28;20265;-73
2023/04/20 20:47:29;;;;;;;15.07;9.10;;;6.60;1.00;;;;;;8332252;28;20198;-73
2023/04/20 20:52:32;;;;;;;10.27;8.13;;;6.50;1.00;;;;;;8265395;28;20218;-74
2023/04/20 20:57:09;;;;;;;11.93;7.90;;;6.40;1.00;;;;;;8264055;28;20234;-72
2023/04/20 21:01:43;;;;;;;9.97;8.07;;;6.30;1.00;;;;;;8253754;28;20283;-74
2023/04/20 21:05:53;;;;;;;11.17;8.03;;;6.30;99.90;;;;;;8245701;28;20339;-73
2023/04/20 21:10:11;;;;;;;11.10;7.47;;;6.20;99.90;;;;;;8237431;28;20235;-73
2023/04/20 21:14:18;;;;;;;11.87;8.97;;;6.20;1.00;;;;;;8265149;28;20197;-73
2023/04/20 21:18:22;;;;;;;12.33;8.50;;;6.10;1.00;;;;;;8265187;28;20248;-72
2023/04/20 21:22:26;;;;;;;13.03;8.53;;;6.00;1.70;;;;;;8245463;28;20195;-73
2023/04/20 21:27:08;;;;;;;10.63;8.57;;;5.90;94.60;;;;;;8268800;28;20358;-72
2023/04/20 21:31:25;;;;;;;13.80;8.87;;;5.80;88.50;;;;;;8234927;28;20227;-74
2023/04/20 21:35:38;;;;;;;11.67;8.03;;;5.80;99.90;;;;;;8263283;28;20187;-73
2023/04/20 21:39:45;;;;;;;12.73;8.53;;;5.70;99.90;;;;;;8249899;28;20187;-74
2023/04/20 21:44:06;;;;;;;9.30;7.10;;;5.60;1.00;;;;;;8266401;28;20234;-75
2023/04/20 21:48:16;;;;;;;12.00;7.37;;;5.50;1.00;;;;;;8262009;28;20195;-73
2023/04/20 21:52:37;;;;;;;16.50;9.37;;;5.50;1.00;;;;;;8248595;28;20230;-74
2023/04/20 21:57:12;;;;;;;65.83;24.47;;;5.40;99.90;;;;;;8306057;28;20244;-73
2023/04/20 22:01:48;;;;;;;46.17;18.40;;;5.40;1.00;;;;;;8294892;28;20217;-74
2023/04/20 22:05:56;;;;;;;17.07;8.97;;;5.30;1.00;;;;;;8303423;28;20274;-73
2023/04/20 22:10:02;;;;;;;9.90;6.57;;;5.10;1.00;;;;;;8327607;28;20217;-73
2023/04/20 22:14:30;;;;;;;8.40;5.70;;;5.00;99.90;;;;;;8304639;28;20186;-74
2023/04/20 22:18:57;;;;;;;8.20;6.27;;;4.90;99.90;;;;;;8302894;28;20281;-72
2023/04/20 22:22:58;;;;;;;10.87;6.23;;;4.80;1.00;;;;;;8309630;28;20233;-74
2023/04/20 22:27:29;;;;;;;7.47;6.00;;;4.90;99.90;;;;;;8307562;28;20196;-73
2023/04/20 22:37:21;;;;;;;9.00;6.80;;;4.70;33.40;;;;;;8313384;28;20185;-73
2023/04/20 22:41:35;;;;;;;11.00;6.30;;;4.70;99.90;;;;;;8169112;28;20304;-72
2023/04/20 22:45:54;;;;;;;8.33;6.33;;;4.60;99.90;;;;;;8191781;28;20197;-73
2023/04/20 22:49:56;;;;;;;10.93;6.10;;;4.50;72.10;;;;;;8320565;28;20208;-73
2023/04/20 22:54:05;;;;;;;9.67;6.60;;;4.40;1.00;;;;;;8331135;28;20185;-73
2023/04/20 22:58:28;;;;;;;8.57;6.60;;;4.30;99.90;;;;;;8322956;28;20204;-74
2023/04/20 23:07:20;;;;;;;11.20;7.43;;;4.30;99.90;;;;;;8318843;28;20194;-72
2023/04/20 23:11:37;;;;;;;10.70;8.00;;;4.20;99.90;;;;;;8307204;28;20287;-73
2023/04/20 23:15:48;;;;;;;14.07;7.60;;;4.20;99.90;;;;;;8323911;28;20217;-72
2023/04/20 23:19:58;;;;;;;7.83;6.17;;;4.00;99.90;;;;;;8330140;28;20201;-73
2023/04/20 23:24:10;;;;;;;10.73;5.93;;;3.90;99.90;;;;;;8317260;28;20210;-73
2023/04/20 23:29:00;;;;;;;9.87;6.33;;;3.90;99.90;;;;;;8314676;28;20194;-74
2023/04/20 23:33:25;;;;;;;7.57;5.73;;;3.80;99.90;;;;;;8331869;28;20217;-73
2023/04/20 23:37:50;;;;;;;9.80;6.23;;;3.80;99.90;;;;;;8309640;28;20201;-74
2023/04/20 23:46:58;;;;;;;8.43;6.47;;;3.70;99.90;;;;;;8272429;28;20394;-74
2023/04/20 23:51:40;;;;;;;8.50;6.20;;;3.70;99.90;;;;;;8262397;28;20301;-72
2023/04/20 23:56:16;;;;;;;;;;;;;;;;;;;;;
